createdAt,value
2018-06-14T00:00:55.055Z,998.66
2018-06-14T00:01:55.080Z,998.62
2018-06-14T00:02:55.108Z,998.67
2018-06-14T00:03:55.135Z,998.66
2018-06-14T00:04:55.162Z,998.66
2018-06-14T00:05:55.189Z,998.69
2018-06-14T00:06:55.257Z,998.68
2018-06-14T00:07:55.244Z,998.69
2018-06-14T00:08:55.271Z,998.68
2018-06-14T00:09:55.300Z,998.67
2018-06-14T00:10:55.328Z,998.68
2018-06-14T00:11:55.353Z,998.64
2018-06-14T00:12:55.396Z,998.64
2018-06-14T00:13:55.410Z,998.64
2018-06-14T00:14:55.437Z,998.69
2018-06-14T00:15:55.464Z,998.67
2018-06-14T00:16:55.492Z,998.66
2018-06-14T00:17:55.521Z,998.67
2018-06-14T00:18:55.548Z,998.64
2018-06-14T00:19:55.577Z,998.67
2018-06-14T00:20:55.602Z,998.68
2018-06-14T00:21:55.629Z,998.71
2018-06-14T00:22:55.656Z,998.68
2018-06-14T00:23:55.686Z,998.69
2018-06-14T00:24:55.711Z,998.70
2018-06-14T00:25:55.740Z,998.68
2018-06-14T00:26:55.766Z,998.68
2018-06-14T00:27:55.793Z,998.71
2018-06-14T00:28:55.824Z,998.69
2018-06-14T00:29:55.847Z,998.69
2018-06-14T00:30:55.876Z,998.72
2018-06-14T00:31:55.927Z,998.71
2018-06-14T00:32:55.930Z,998.73
2018-06-14T00:33:55.990Z,998.74
2018-06-14T00:34:55.985Z,998.70
2018-06-14T00:35:56.012Z,998.72
2018-06-14T00:36:56.040Z,998.69
2018-06-14T00:37:56.067Z,998.74
2018-06-14T00:38:56.095Z,998.75
2018-06-14T00:39:56.121Z,998.76
2018-06-14T00:40:56.149Z,998.76
2018-06-14T00:41:56.177Z,998.80
2018-06-14T00:42:56.205Z,998.76
2018-06-14T00:43:56.231Z,998.79
2018-06-14T00:44:56.262Z,998.79
2018-06-14T00:45:56.286Z,998.78
2018-06-14T00:46:56.314Z,998.80
2018-06-14T00:47:56.364Z,998.80
2018-06-14T00:48:56.368Z,998.77
2018-06-14T00:49:56.399Z,998.80
2018-06-14T00:50:56.462Z,998.81
2018-06-14T00:51:56.450Z,998.78
2018-06-14T00:52:56.479Z,998.78
2018-06-14T00:53:56.505Z,998.81
2018-06-14T00:54:56.532Z,998.80
2018-06-14T00:55:56.560Z,998.83
2018-06-14T00:56:56.608Z,998.83
2018-06-14T00:57:56.615Z,998.86
2018-06-14T00:58:56.643Z,998.87
2018-06-14T00:59:56.704Z,998.89
2018-06-14T01:00:56.701Z,998.89
2018-06-14T01:01:56.726Z,998.91
2018-06-14T01:02:56.752Z,998.92
2018-06-14T01:03:56.804Z,998.91
2018-06-14T01:04:56.807Z,998.91
2018-06-14T01:05:56.833Z,998.91
2018-06-14T01:06:56.861Z,998.91
2018-06-14T01:07:56.888Z,998.89
2018-06-14T01:08:56.915Z,998.88
2018-06-14T01:09:56.945Z,998.91
2018-06-14T01:10:56.971Z,998.88
2018-06-14T01:11:57.000Z,998.93
2018-06-14T01:12:57.026Z,998.90
2018-06-14T01:13:57.053Z,998.87
2018-06-14T01:14:57.080Z,998.91
2018-06-14T01:15:57.107Z,998.94
2018-06-14T01:16:57.134Z,998.93
2018-06-14T01:17:57.163Z,998.92
2018-06-14T01:18:57.190Z,998.96
2018-06-14T01:19:57.216Z,998.95
2018-06-14T01:20:57.244Z,998.98
2018-06-14T01:21:57.284Z,998.99
2018-06-14T01:22:57.300Z,998.97
2018-06-14T01:23:57.326Z,998.98
2018-06-14T01:24:57.353Z,998.96
2018-06-14T01:25:57.381Z,998.98
2018-06-14T01:26:57.409Z,998.98
2018-06-14T01:27:57.436Z,999.01
2018-06-14T01:28:57.463Z,999.02
2018-06-14T01:29:57.495Z,998.99
2018-06-14T01:30:57.521Z,999.01
2018-06-14T01:31:57.546Z,999.05
2018-06-14T01:32:57.574Z,999.03
2018-06-14T01:33:57.601Z,999.07
2018-06-14T01:34:57.629Z,999.03
2018-06-14T01:35:57.655Z,999.02
2018-06-14T01:36:57.682Z,999.02
2018-06-14T01:37:57.710Z,999.07
2018-06-14T01:38:57.739Z,999.05
2018-06-14T01:39:57.765Z,999.12
2018-06-14T01:40:57.794Z,999.12
2018-06-14T01:41:57.820Z,999.10
2018-06-14T01:42:57.848Z,999.09
2018-06-14T01:43:57.875Z,999.11
2018-06-14T01:44:57.902Z,999.09
2018-06-14T01:45:57.959Z,999.12
2018-06-14T01:46:57.958Z,999.09
2018-06-14T01:47:57.983Z,999.07
2018-06-14T01:48:58.012Z,999.10
2018-06-14T01:49:58.039Z,999.09
2018-06-14T01:50:58.077Z,999.08
2018-06-14T01:51:58.094Z,999.09
2018-06-14T01:52:58.125Z,999.08
2018-06-14T01:53:58.152Z,999.09
2018-06-14T01:54:58.177Z,999.10
2018-06-14T01:55:58.204Z,999.12
2018-06-14T01:56:58.232Z,999.16
2018-06-14T01:57:58.259Z,999.13
2018-06-14T01:58:58.286Z,999.13
2018-06-14T01:59:58.313Z,999.14
2018-06-14T02:00:58.341Z,999.09
2018-06-14T02:01:58.368Z,999.13
2018-06-14T02:02:58.396Z,999.13
2018-06-14T02:03:58.423Z,999.11
2018-06-14T02:04:58.452Z,999.10
2018-06-14T02:05:58.479Z,999.13
2018-06-14T02:06:58.507Z,999.09
2018-06-14T02:07:58.532Z,999.10
2018-06-14T02:08:58.561Z,999.12
2018-06-14T02:09:58.588Z,999.15
2018-06-14T02:10:58.616Z,999.13
2018-06-14T02:11:58.642Z,999.14
2018-06-14T02:12:58.712Z,999.14
2018-06-14T02:13:58.698Z,999.15
2018-06-14T02:14:58.726Z,999.18
2018-06-14T02:15:58.752Z,999.16
2018-06-14T02:16:58.787Z,999.17
2018-06-14T02:17:58.807Z,999.15
2018-06-14T02:18:58.837Z,999.15
2018-06-14T02:19:58.862Z,999.21
2018-06-14T02:20:58.892Z,999.18
2018-06-14T02:21:58.917Z,999.19
2018-06-14T02:22:58.974Z,999.22
2018-06-14T02:23:58.972Z,999.23
2018-06-14T02:24:58.999Z,999.22
2018-06-14T02:25:59.027Z,999.20
2018-06-14T02:26:59.055Z,999.22
2018-06-14T02:27:59.097Z,999.23
2018-06-14T02:28:59.109Z,999.25
2018-06-14T02:29:59.140Z,999.24
2018-06-14T02:30:59.165Z,999.25
2018-06-14T02:31:59.192Z,999.30
2018-06-14T02:32:59.220Z,999.28
2018-06-14T02:33:59.247Z,999.28
2018-06-14T02:34:59.310Z,999.33
2018-06-14T02:35:59.301Z,999.29
2018-06-14T02:36:59.328Z,999.29
2018-06-14T02:37:59.357Z,999.31
2018-06-14T02:38:59.384Z,999.36
2018-06-14T02:39:59.410Z,999.34
2018-06-14T02:40:59.438Z,999.34
2018-06-14T02:41:59.468Z,999.35
2018-06-14T02:42:59.502Z,999.34
2018-06-14T02:43:59.520Z,999.35
2018-06-14T02:44:59.549Z,999.34
2018-06-14T02:45:59.576Z,999.34
2018-06-14T02:46:59.604Z,999.35
2018-06-14T02:47:59.630Z,999.35
2018-06-14T02:48:59.658Z,999.31
2018-06-14T02:49:59.686Z,999.32
2018-06-14T02:50:59.713Z,999.32
2018-06-14T02:51:59.740Z,999.32
2018-06-14T02:52:59.769Z,999.30
2018-06-14T02:53:59.797Z,999.34
2018-06-14T02:54:59.824Z,999.38
2018-06-14T02:55:59.853Z,999.37
2018-06-14T02:56:59.890Z,999.40
2018-06-14T02:57:59.907Z,999.43
2018-06-14T02:58:59.935Z,999.46
2018-06-14T02:59:59.962Z,999.46
2018-06-14T03:00:59.989Z,999.47
2018-06-14T03:02:00.021Z,999.43
2018-06-14T03:03:00.045Z,999.48
2018-06-14T03:04:00.072Z,999.44
2018-06-14T03:05:00.102Z,999.45
2018-06-14T03:06:00.127Z,999.50
2018-06-14T03:07:00.155Z,999.47
2018-06-14T03:08:00.182Z,999.46
2018-06-14T03:09:00.211Z,999.47
2018-06-14T03:10:00.237Z,999.48
2018-06-14T03:11:00.265Z,999.46
2018-06-14T03:12:00.292Z,999.50
2018-06-14T03:13:00.323Z,999.48
2018-06-14T03:14:00.380Z,999.48
2018-06-14T03:15:00.375Z,999.51
2018-06-14T03:16:00.404Z,999.50
2018-06-14T03:17:00.432Z,999.51
2018-06-14T03:18:00.458Z,999.53
2018-06-14T03:19:00.499Z,999.47
2018-06-14T03:20:00.513Z,999.53
2018-06-14T03:21:00.542Z,999.48
2018-06-14T03:22:00.570Z,999.53
2018-06-14T03:23:00.597Z,999.51
2018-06-14T03:24:00.624Z,999.50
2018-06-14T03:25:00.653Z,999.49
2018-06-14T03:26:00.685Z,999.49
2018-06-14T03:27:00.709Z,999.52
2018-06-14T03:28:00.735Z,999.49
2018-06-14T03:29:00.762Z,999.49
2018-06-14T03:30:00.796Z,999.51
2018-06-14T03:31:00.823Z,999.49
2018-06-14T03:32:00.846Z,999.53
2018-06-14T03:33:00.874Z,999.49
2018-06-14T03:34:00.904Z,999.50
2018-06-14T03:35:00.933Z,999.55
2018-06-14T03:36:00.958Z,999.54
2018-06-14T03:37:00.985Z,999.55
2018-06-14T03:38:01.013Z,999.57
2018-06-14T03:39:01.062Z,999.56
2018-06-14T03:40:01.068Z,999.56
2018-06-14T03:41:01.096Z,999.57
2018-06-14T03:42:01.125Z,999.59
2018-06-14T03:43:01.190Z,999.59
2018-06-14T03:44:01.179Z,999.57
2018-06-14T03:45:01.206Z,999.54
2018-06-14T03:46:01.235Z,999.57
2018-06-14T03:47:01.263Z,999.56
2018-06-14T03:48:01.291Z,999.57
2018-06-14T03:49:01.318Z,999.57
2018-06-14T03:50:01.349Z,999.59
2018-06-14T03:51:01.374Z,999.58
2018-06-14T03:52:01.455Z,999.58
2018-06-14T03:53:01.432Z,999.57
2018-06-14T03:54:01.457Z,999.61
2018-06-14T03:55:01.485Z,999.62
2018-06-14T03:56:01.545Z,999.62
2018-06-14T03:57:01.541Z,999.68
2018-06-14T03:58:01.569Z,999.66
2018-06-14T03:59:01.598Z,999.68
2018-06-14T04:00:01.627Z,999.67
2018-06-14T04:01:01.652Z,999.69
2018-06-14T04:02:01.683Z,999.69
2018-06-14T04:03:01.721Z,999.75
2018-06-14T04:04:01.784Z,999.69
2018-06-14T04:05:01.763Z,999.74
2018-06-14T04:06:01.790Z,999.73
2018-06-14T04:07:01.820Z,999.73
2018-06-14T04:08:01.845Z,999.78
2018-06-14T04:09:01.877Z,999.76
2018-06-14T04:10:01.973Z,999.79
2018-06-14T04:11:01.930Z,999.76
2018-06-14T04:12:02.010Z,999.75
2018-06-14T04:13:01.986Z,999.77
2018-06-14T04:14:02.013Z,999.75
2018-06-14T04:15:02.041Z,999.77
2018-06-14T04:16:02.069Z,999.81
2018-06-14T04:17:02.105Z,999.79
2018-06-14T04:18:02.126Z,999.80
2018-06-14T04:19:02.153Z,999.80
2018-06-14T04:20:02.184Z,999.80
2018-06-14T04:21:02.208Z,999.82
2018-06-14T04:22:02.254Z,999.77
2018-06-14T04:23:02.264Z,999.76
2018-06-14T04:24:02.291Z,999.73
2018-06-14T04:25:02.341Z,999.76
2018-06-14T04:26:02.347Z,999.75
2018-06-14T04:27:02.376Z,999.75
2018-06-14T04:28:02.403Z,999.74
2018-06-14T04:29:02.431Z,999.77
2018-06-14T04:30:02.465Z,999.75
2018-06-14T04:31:02.490Z,999.76
2018-06-14T04:32:02.516Z,999.75
2018-06-14T04:33:02.548Z,999.76
2018-06-14T04:34:02.572Z,999.77
2018-06-14T04:35:02.602Z,999.79
2018-06-14T04:36:02.627Z,999.75
2018-06-14T04:37:02.658Z,999.75
2018-06-14T04:38:02.684Z,999.76
2018-06-14T04:39:02.714Z,999.78
2018-06-14T04:40:02.739Z,999.76
2018-06-14T04:41:02.768Z,999.77
2018-06-14T04:42:02.796Z,999.79
2018-06-14T04:43:02.825Z,999.81
2018-06-14T04:44:02.852Z,999.78
2018-06-14T04:45:02.881Z,999.78
2018-06-14T04:46:02.909Z,999.81
2018-06-14T04:47:02.937Z,999.82
2018-06-14T04:48:02.980Z,999.82
2018-06-14T04:49:03.001Z,999.78
2018-06-14T04:50:03.021Z,999.80
2018-06-14T04:51:03.050Z,999.82
2018-06-14T04:52:03.113Z,999.79
2018-06-14T04:53:03.105Z,999.78
2018-06-14T04:54:03.133Z,999.73
2018-06-14T04:55:03.180Z,999.71
2018-06-14T04:56:03.189Z,999.74
2018-06-14T04:57:03.217Z,999.75
2018-06-14T04:58:03.247Z,999.75
2018-06-14T04:59:03.290Z,999.78
2018-06-14T05:00:03.301Z,999.76
2018-06-14T05:01:03.329Z,999.77
2018-06-14T05:02:03.378Z,999.80
2018-06-14T05:03:03.386Z,999.73
2018-06-14T05:04:03.413Z,999.73
2018-06-14T05:05:03.442Z,999.69
2018-06-14T05:06:03.471Z,999.73
2018-06-14T05:07:03.499Z,999.72
2018-06-14T05:08:03.552Z,999.66
2018-06-14T05:09:03.554Z,999.70
2018-06-14T05:10:03.582Z,999.69
2018-06-14T05:11:03.611Z,999.70
2018-06-14T05:12:03.639Z,999.67
2018-06-14T05:13:03.667Z,999.69
2018-06-14T05:14:03.727Z,999.69
2018-06-14T05:15:03.724Z,999.72
2018-06-14T05:16:03.751Z,999.70
2018-06-14T05:17:03.779Z,999.68
2018-06-14T05:18:03.817Z,999.68
2018-06-14T05:19:03.843Z,999.70
2018-06-14T05:20:03.870Z,999.67
2018-06-14T05:21:03.892Z,999.76
2018-06-14T05:22:03.920Z,999.76
2018-06-14T05:23:03.948Z,999.70
2018-06-14T05:24:03.976Z,999.74
2018-06-14T05:25:04.004Z,999.72
2018-06-14T05:26:04.033Z,999.73
2018-06-14T05:27:04.073Z,999.70
2018-06-14T05:28:04.088Z,999.71
2018-06-14T05:29:04.117Z,999.67
2018-06-14T05:30:04.146Z,999.75
2018-06-14T05:31:04.173Z,999.73
2018-06-14T05:32:04.200Z,999.78
2018-06-14T05:33:04.229Z,999.73
2018-06-14T05:34:04.257Z,999.73
2018-06-14T05:35:04.287Z,999.76
2018-06-14T05:36:04.315Z,999.80
2018-06-14T05:37:04.341Z,999.80
2018-06-14T05:38:04.429Z,999.81
2018-06-14T05:39:04.397Z,999.78
2018-06-14T05:40:04.427Z,999.80
2018-06-14T05:41:04.454Z,999.81
2018-06-14T05:42:04.485Z,999.83
2018-06-14T05:43:04.510Z,999.83
2018-06-14T05:44:04.570Z,999.85
2018-06-14T05:45:04.586Z,999.84
2018-06-14T05:46:04.595Z,999.82
2018-06-14T05:47:04.637Z,999.85
2018-06-14T05:48:04.650Z,999.82
2018-06-14T05:49:04.679Z,999.83
2018-06-14T05:50:04.707Z,999.82
2018-06-14T05:51:04.736Z,999.84
2018-06-14T05:52:04.763Z,999.80
2018-06-14T05:53:04.791Z,999.85
2018-06-14T05:54:04.820Z,999.83
2018-06-14T05:55:04.848Z,999.84
2018-06-14T05:56:04.928Z,999.82
2018-06-14T05:57:04.904Z,999.85
2018-06-14T05:58:04.932Z,999.77
2018-06-14T05:59:04.963Z,999.80
2018-06-14T06:00:04.990Z,999.74
2018-06-14T06:01:05.016Z,999.75
2018-06-14T06:02:05.044Z,999.70
2018-06-14T06:03:05.074Z,999.73
2018-06-14T06:04:05.101Z,999.74
2018-06-14T06:05:05.130Z,999.73
2018-06-14T06:06:05.179Z,999.71
2018-06-14T06:07:05.186Z,999.74
2018-06-14T06:08:05.213Z,999.73
2018-06-14T06:09:05.251Z,999.76
2018-06-14T06:10:05.270Z,999.72
2018-06-14T06:11:05.344Z,999.74
2018-06-14T06:12:05.326Z,999.76
2018-06-14T06:13:05.354Z,999.75
2018-06-14T06:14:05.382Z,999.74
2018-06-14T06:15:05.410Z,999.72
2018-06-14T06:16:05.437Z,999.76
2018-06-14T06:17:05.468Z,999.74
2018-06-14T06:18:05.511Z,999.73
2018-06-14T06:19:05.523Z,999.76
2018-06-14T06:20:05.554Z,999.73
2018-06-14T06:21:05.583Z,999.76
2018-06-14T06:22:05.606Z,999.73
2018-06-14T06:23:05.652Z,999.74
2018-06-14T06:24:05.665Z,999.74
2018-06-14T06:25:05.694Z,999.72
2018-06-14T06:26:05.741Z,999.75
2018-06-14T06:27:05.751Z,999.72
2018-06-14T06:28:05.774Z,999.68
2018-06-14T06:29:05.807Z,999.69
2018-06-14T06:30:05.832Z,999.74
2018-06-14T06:31:05.859Z,999.78
2018-06-14T06:32:05.887Z,999.77
2018-06-14T06:33:05.983Z,999.75
2018-06-14T06:34:05.945Z,999.74
2018-06-14T06:35:05.973Z,999.68
2018-06-14T06:36:05.999Z,999.73
2018-06-14T06:37:06.027Z,999.75
2018-06-14T06:38:06.056Z,999.72
2018-06-14T06:39:06.084Z,999.72
2018-06-14T06:40:06.114Z,999.70
2018-06-14T06:41:06.141Z,999.73
2018-06-14T06:42:06.172Z,999.77
2018-06-14T06:43:06.197Z,999.75
2018-06-14T06:44:06.224Z,999.74
2018-06-14T06:45:06.267Z,999.73
2018-06-14T06:46:06.281Z,999.75
2018-06-14T06:47:06.323Z,999.76
2018-06-14T06:48:06.338Z,999.75
2018-06-14T06:49:06.364Z,999.76
2018-06-14T06:50:06.393Z,999.75
2018-06-14T06:51:06.422Z,999.75
2018-06-14T06:52:06.449Z,999.77
2018-06-14T06:53:06.517Z,999.77
2018-06-14T06:54:06.506Z,999.77
2018-06-14T06:55:06.537Z,999.78
2018-06-14T06:56:06.561Z,999.76
2018-06-14T06:57:06.626Z,999.76
2018-06-14T06:58:06.618Z,999.77
2018-06-14T06:59:06.648Z,999.70
2018-06-14T07:00:06.673Z,999.70
2018-06-14T07:01:06.701Z,999.71
2018-06-14T07:02:06.731Z,999.69
2018-06-14T07:03:06.758Z,999.72
2018-06-14T07:04:06.786Z,999.70
2018-06-14T07:05:06.814Z,999.70
2018-06-14T07:06:06.924Z,999.71
2018-06-14T07:07:06.870Z,999.69
2018-06-14T07:08:06.898Z,999.65
2018-06-14T07:09:06.926Z,999.68
2018-06-14T07:10:06.954Z,999.66
2018-06-14T07:11:06.983Z,999.66
2018-06-14T07:12:07.012Z,999.66
2018-06-14T07:13:07.038Z,999.63
2018-06-14T07:14:07.069Z,999.66
2018-06-14T07:15:07.095Z,999.70
2018-06-14T07:16:07.152Z,999.67
2018-06-14T07:17:07.151Z,999.69
2018-06-14T07:18:07.178Z,999.67
2018-06-14T07:19:07.207Z,999.72
2018-06-14T07:20:07.234Z,999.71
2018-06-14T07:21:07.265Z,999.71
2018-06-14T07:22:07.291Z,999.67
2018-06-14T07:23:07.319Z,999.67
2018-06-14T07:24:07.369Z,999.66
2018-06-14T07:25:07.374Z,999.67
2018-06-14T07:26:07.403Z,999.70
2018-06-14T07:27:07.431Z,999.64
2018-06-14T07:28:07.458Z,999.68
2018-06-14T07:29:07.486Z,999.65
2018-06-14T07:30:07.515Z,999.64
2018-06-14T07:31:07.542Z,999.61
2018-06-14T07:32:07.571Z,999.65
2018-06-14T07:33:07.598Z,999.65
2018-06-14T07:34:07.626Z,999.63
2018-06-14T07:35:07.676Z,999.66
2018-06-14T07:36:07.682Z,999.65
2018-06-14T07:37:07.711Z,999.63
2018-06-14T07:38:07.738Z,999.66
2018-06-14T07:39:07.767Z,999.69
2018-06-14T07:40:07.794Z,999.70
2018-06-14T07:41:07.824Z,999.68
2018-06-14T07:42:07.851Z,999.68
2018-06-14T07:43:07.901Z,999.70
2018-06-14T07:44:07.907Z,999.68
2018-06-14T07:45:07.936Z,999.70
2018-06-14T07:46:07.963Z,999.67
2018-06-14T07:47:07.992Z,999.65
2018-06-14T07:48:08.019Z,999.62
2018-06-14T07:49:08.048Z,999.62
2018-06-14T07:50:08.075Z,999.60
2018-06-14T07:51:08.103Z,999.61
2018-06-14T07:52:08.131Z,999.63
2018-06-14T07:53:08.159Z,999.57
2018-06-14T07:54:08.267Z,999.63
2018-06-14T07:55:08.215Z,999.63
2018-06-14T07:56:08.285Z,999.58
2018-06-14T07:57:08.300Z,999.56
2018-06-14T07:58:08.301Z,999.58
2018-06-14T07:59:08.327Z,999.53
2018-06-14T08:00:08.411Z,999.52
2018-06-14T08:01:08.382Z,999.54
2018-06-14T08:02:08.411Z,999.55
2018-06-14T08:03:08.440Z,999.56
2018-06-14T08:04:08.466Z,999.54
2018-06-14T08:05:08.495Z,999.54
2018-06-14T08:06:08.523Z,999.53
2018-06-14T08:07:08.552Z,999.54
2018-06-14T08:08:08.578Z,999.54
2018-06-14T08:09:08.606Z,999.52
2018-06-14T08:10:08.639Z,999.52
2018-06-14T08:11:08.663Z,999.54
2018-06-14T08:12:08.691Z,999.54
2018-06-14T08:13:08.720Z,999.53
2018-06-14T08:14:08.747Z,999.56
2018-06-14T08:15:08.776Z,999.55
2018-06-14T08:16:08.802Z,999.53
2018-06-14T08:17:08.851Z,999.55
2018-06-14T08:18:08.859Z,999.50
2018-06-14T08:19:08.888Z,999.49
2018-06-14T08:20:08.914Z,999.51
2018-06-14T08:21:08.947Z,999.52
2018-06-14T08:22:08.971Z,999.51
2018-06-14T08:23:09.022Z,999.47
2018-06-14T08:24:09.031Z,999.43
2018-06-14T08:25:09.056Z,999.49
2018-06-14T08:26:09.083Z,999.50
2018-06-14T08:27:09.112Z,999.50
2018-06-14T08:28:09.139Z,999.50
2018-06-14T08:29:09.173Z,999.50
2018-06-14T08:30:09.196Z,999.54
2018-06-14T08:31:09.224Z,999.57
2018-06-14T08:32:09.251Z,999.57
2018-06-14T08:33:09.279Z,999.56
2018-06-14T08:34:09.387Z,999.59
2018-06-14T08:35:09.356Z,999.56
2018-06-14T08:36:09.364Z,999.55
2018-06-14T08:37:09.391Z,999.56
2018-06-14T08:38:09.419Z,999.51
2018-06-14T08:39:09.451Z,999.53
2018-06-14T08:40:09.475Z,999.50
2018-06-14T08:41:09.506Z,999.51
2018-06-14T08:42:09.532Z,999.50
2018-06-14T08:43:09.559Z,999.44
2018-06-14T08:44:09.588Z,999.50
2018-06-14T08:45:09.616Z,999.47
2018-06-14T08:46:09.672Z,999.43
2018-06-14T08:47:09.672Z,999.43
2018-06-14T08:48:09.719Z,999.46
2018-06-14T08:49:09.727Z,999.42
2018-06-14T08:50:09.756Z,999.37
2018-06-14T08:51:09.792Z,999.42
2018-06-14T08:52:09.811Z,999.42
2018-06-14T08:53:09.839Z,999.42
2018-06-14T08:54:09.899Z,999.36
2018-06-14T08:55:09.896Z,999.43
2018-06-14T08:56:09.924Z,999.38
2018-06-14T08:57:09.951Z,999.39
2018-06-14T08:58:09.980Z,999.42
2018-06-14T08:59:10.008Z,999.40
2018-06-14T09:04:26.467Z,999.40
2018-06-14T09:05:26.454Z,999.37
2018-06-14T09:07:33.835Z,999.34
2018-06-14T09:08:33.855Z,999.33
2018-06-14T09:10:41.169Z,999.31
2018-06-14T09:11:41.190Z,999.28
2018-06-14T09:13:34.131Z,999.33
2018-06-14T09:14:34.105Z,999.34
2018-06-14T09:16:27.033Z,999.37
2018-06-14T09:17:27.032Z,999.38
2018-06-14T09:19:45.476Z,999.34
2018-06-14T09:20:45.477Z,999.29
2018-06-14T09:22:52.876Z,999.30
2018-06-14T09:23:52.854Z,999.23
2018-06-14T09:25:45.771Z,999.18
2018-06-14T09:26:45.769Z,999.26
2018-06-14T09:28:38.685Z,999.20
2018-06-14T09:29:38.685Z,999.21
2018-06-14T09:31:31.601Z,999.15
2018-06-14T09:32:31.600Z,999.10
2018-06-14T09:34:24.519Z,999.15
2018-06-14T09:35:24.534Z,999.16
2018-06-14T09:37:17.412Z,999.17
2018-06-14T09:38:17.433Z,999.19
2018-06-14T09:40:10.379Z,999.18
2018-06-14T09:41:10.356Z,999.16
2018-06-14T09:43:17.732Z,999.15
2018-06-14T09:44:17.731Z,999.18
2018-06-14T09:46:37.024Z,999.12
2018-06-14T09:47:37.023Z,999.10
2018-06-14T09:49:56.294Z,999.11
2018-06-14T09:50:56.314Z,999.10
2018-06-14T09:53:03.692Z,999.11
2018-06-14T09:54:03.692Z,999.10
2018-06-14T09:55:56.608Z,999.14
2018-06-14T09:56:56.616Z,999.11
2018-06-14T09:58:49.524Z,999.17
2018-06-14T09:59:49.523Z,999.18
2018-06-14T10:01:42.439Z,999.23
2018-06-14T10:02:42.439Z,999.22
2018-06-14T10:04:35.359Z,999.16
2018-06-14T10:05:35.355Z,999.14
2018-06-14T10:07:42.733Z,999.08
2018-06-14T10:08:42.733Z,999.03
2018-06-14T10:09:42.762Z,999.13
2018-06-14T10:10:42.789Z,999.12
2018-06-14T10:11:42.815Z,999.04
2018-06-14T10:12:42.843Z,999.08
2018-06-14T10:13:42.872Z,999.10
2018-06-14T10:14:42.900Z,999.06
2018-06-14T10:15:42.928Z,999.08
2018-06-14T10:16:42.956Z,999.09
2018-06-14T10:17:42.984Z,999.02
2018-06-14T10:18:43.071Z,999.04
2018-06-14T10:19:43.043Z,999.04
2018-06-14T10:20:43.068Z,998.93
2018-06-14T10:21:43.105Z,998.89
2018-06-14T10:22:43.124Z,998.88
2018-06-14T10:23:43.152Z,998.89
2018-06-14T10:24:43.180Z,998.87
2018-06-14T10:25:43.252Z,998.92
2018-06-14T10:26:43.237Z,998.96
2018-06-14T10:27:43.264Z,998.90
2018-06-14T10:28:43.296Z,998.92
2018-06-14T10:29:43.320Z,998.92
2018-06-14T10:30:43.348Z,998.90
2018-06-14T10:31:43.377Z,998.92
2018-06-14T10:32:43.428Z,999.00
2018-06-14T10:33:43.459Z,999.05
2018-06-14T10:34:43.503Z,999.03
2018-06-14T10:35:43.487Z,998.97
2018-06-14T10:36:43.516Z,998.97
2018-06-14T10:37:43.544Z,998.98
2018-06-14T10:38:43.572Z,998.96
2018-06-14T10:39:43.599Z,998.90
2018-06-14T10:40:43.627Z,998.97
2018-06-14T10:41:43.656Z,998.94
2018-06-14T10:42:43.684Z,998.93
2018-06-14T10:43:43.711Z,998.87
2018-06-14T10:44:43.739Z,998.92
2018-06-14T10:45:43.768Z,998.89
2018-06-14T10:46:43.795Z,998.97
2018-06-14T10:47:43.823Z,998.99
2018-06-14T10:48:43.866Z,998.96
2018-06-14T10:49:43.880Z,999.03
2018-06-14T10:50:43.907Z,999.00
2018-06-14T10:51:43.935Z,998.95
2018-06-14T10:52:43.963Z,998.96
2018-06-14T10:53:43.991Z,998.94
2018-06-14T10:54:44.020Z,998.86
2018-06-14T10:55:44.047Z,998.90
2018-06-14T10:56:44.075Z,998.92
2018-06-14T10:57:44.108Z,998.84
2018-06-14T10:58:44.131Z,998.90
2018-06-14T10:59:44.166Z,998.84
2018-06-14T11:00:44.187Z,998.77
2018-06-14T11:01:44.215Z,998.74
2018-06-14T11:02:44.244Z,998.74
2018-06-14T11:03:44.277Z,998.68
2018-06-14T11:04:44.298Z,998.70
2018-06-14T11:05:44.328Z,998.68
2018-06-14T11:06:44.354Z,998.72
2018-06-14T11:07:44.396Z,998.75
2018-06-14T11:08:44.410Z,998.74
2018-06-14T11:09:44.439Z,998.73
2018-06-14T11:10:44.467Z,998.72
2018-06-14T11:11:44.494Z,998.69
2018-06-14T11:12:44.522Z,998.69
2018-06-14T11:13:44.551Z,998.64
2018-06-14T11:14:44.578Z,998.64
2018-06-14T11:15:44.606Z,998.71
2018-06-14T11:16:44.636Z,998.68
2018-06-14T11:17:44.666Z,998.66
2018-06-14T11:18:44.691Z,998.63
2018-06-14T11:19:44.723Z,998.66
2018-06-14T11:20:44.747Z,998.64
2018-06-14T11:21:44.774Z,998.67
2018-06-14T11:22:44.803Z,998.67
2018-06-14T11:23:44.830Z,998.63
2018-06-14T11:24:44.857Z,998.65
2018-06-14T11:25:44.887Z,998.62
2018-06-14T11:26:44.914Z,998.65
2018-06-14T11:27:44.942Z,998.61
2018-06-14T11:28:44.969Z,998.64
2018-06-14T11:29:44.999Z,998.64
2018-06-14T11:30:45.031Z,998.59
2018-06-14T11:31:45.054Z,998.60
2018-06-14T11:32:45.083Z,998.59
2018-06-14T11:33:45.114Z,998.62
2018-06-14T11:34:45.140Z,998.62
2018-06-14T11:35:45.165Z,998.65
2018-06-14T11:36:45.194Z,998.61
2018-06-14T11:37:45.227Z,998.64
2018-06-14T11:38:45.250Z,998.65
2018-06-14T11:39:45.278Z,998.64
2018-06-14T11:40:45.306Z,998.53
2018-06-14T11:41:45.335Z,998.51
2018-06-14T11:42:45.362Z,998.51
2018-06-14T11:43:45.390Z,998.50
2018-06-14T11:44:45.456Z,998.45
2018-06-14T11:45:45.477Z,998.45
2018-06-14T11:46:45.475Z,998.47
2018-06-14T11:47:45.502Z,998.42
2018-06-14T11:48:45.530Z,998.42
2018-06-14T11:49:45.558Z,998.48
2018-06-14T11:50:45.588Z,998.45
2018-06-14T11:51:45.613Z,998.46
2018-06-14T11:52:45.645Z,998.50
2018-06-14T11:53:45.671Z,998.54
2018-06-14T11:54:45.703Z,998.49
2018-06-14T11:55:45.726Z,998.49
2018-06-14T11:56:45.757Z,998.47
2018-06-14T11:57:45.782Z,998.43
2018-06-14T11:58:45.810Z,998.41
2018-06-14T11:59:45.838Z,998.39
2018-06-14T12:00:45.866Z,998.37
2018-06-14T12:01:45.954Z,998.33
2018-06-14T12:02:45.923Z,998.37
2018-06-14T12:03:45.949Z,998.38
2018-06-14T12:04:45.978Z,998.41
2018-06-14T12:05:46.007Z,998.43
2018-06-14T12:06:46.035Z,998.44
2018-06-14T12:07:53.169Z,998.45
2018-06-14T12:09:39.589Z,998.49
2018-06-14T12:10:38.980Z,998.45
2018-06-14T12:12:59.126Z,998.41
2018-06-14T12:13:59.105Z,998.41
2018-06-14T12:16:19.254Z,998.32
2018-06-14T12:17:19.231Z,998.37
2018-06-14T12:19:39.358Z,998.40
2018-06-14T12:20:39.356Z,998.38
2018-06-14T12:22:59.488Z,998.37
2018-06-14T12:23:59.483Z,998.39
2018-06-14T12:26:06.856Z,998.37
2018-06-14T12:27:06.855Z,998.41
2018-06-14T12:28:59.775Z,998.41
2018-06-14T12:29:59.779Z,998.42
2018-06-14T12:31:52.676Z,998.40
2018-06-14T12:32:52.696Z,998.42
2018-06-14T12:35:00.078Z,998.46
2018-06-14T12:36:00.068Z,998.39
2018-06-14T12:37:52.988Z,998.48
2018-06-14T12:38:52.985Z,998.47
2018-06-14T12:40:45.905Z,998.42
2018-06-14T12:41:45.903Z,998.41
2018-06-14T12:44:06.031Z,998.40
2018-06-14T12:45:06.030Z,998.37
2018-06-14T12:47:26.158Z,998.41
2018-06-14T12:48:26.156Z,998.44
2018-06-14T12:50:46.284Z,998.35
2018-06-14T12:51:46.291Z,998.31
2018-06-14T12:53:53.656Z,998.33
2018-06-14T12:54:53.658Z,998.27
2018-06-14T12:56:46.553Z,998.26
2018-06-14T12:57:46.573Z,998.26
2018-06-14T12:59:39.493Z,998.29
2018-06-14T13:00:39.491Z,998.33
2018-06-14T13:02:59.620Z,998.30
2018-06-14T13:03:59.659Z,998.31
2018-06-14T13:06:19.746Z,998.29
2018-06-14T13:07:19.758Z,998.29
2018-06-14T13:09:27.119Z,998.22
2018-06-14T13:10:27.116Z,998.19
2018-06-14T13:12:20.041Z,998.27
2018-06-14T13:13:20.038Z,998.26
2018-06-14T13:15:12.953Z,998.19
2018-06-14T13:16:12.952Z,998.20
2018-06-14T13:18:33.309Z,998.19
2018-06-14T13:19:33.310Z,998.20
2018-06-14T13:21:27.907Z,998.18